createdAt,value
2019-02-19T00:02:17.087Z,36.53
2019-02-19T00:04:45.660Z,34.83
2019-02-19T00:07:14.292Z,32.83
2019-02-19T00:09:42.874Z,32.20
2019-02-19T00:12:11.496Z,31.43
2019-02-19T00:14:40.190Z,33.03
2019-02-19T00:17:08.751Z,32.30
2019-02-19T00:19:37.370Z,32.57
2019-02-19T00:22:06.839Z,33.03
2019-02-19T00:24:35.531Z,31.80
2019-02-19T00:27:04.151Z,32.90
2019-02-19T00:29:32.788Z,32.70
2019-02-19T00:32:01.477Z,30.53
2019-02-19T00:34:30.056Z,33.37
2019-02-19T00:36:58.702Z,33.33
2019-02-19T00:39:27.393Z,30.13
2019-02-19T00:41:56.091Z,31.93
2019-02-19T00:44:24.691Z,29.10
2019-02-19T00:46:53.245Z,29.23
2019-02-19T00:49:21.929Z,27.77
2019-02-19T00:51:50.561Z,28.87
2019-02-19T00:54:19.256Z,28.77
2019-02-19T00:56:47.938Z,29.97
2019-02-19T00:59:16.499Z,29.53
2019-02-19T01:01:45.145Z,30.73
2019-02-19T01:04:13.729Z,28.13
2019-02-19T01:06:42.400Z,29.43
2019-02-19T01:09:10.980Z,25.90
2019-02-19T01:11:39.626Z,27.80
2019-02-19T01:14:08.317Z,29.27
2019-02-19T01:16:36.893Z,28.87
2019-02-19T01:19:05.542Z,28.73
2019-02-19T01:21:34.196Z,28.00
2019-02-19T01:24:02.831Z,28.77
2019-02-19T01:26:31.396Z,28.97
2019-02-19T01:29:00.078Z,26.67
2019-02-19T01:31:28.725Z,26.63
2019-02-19T01:33:57.305Z,25.70
2019-02-19T01:36:25.943Z,26.93
2019-02-19T01:38:54.519Z,27.60
2019-02-19T01:41:23.148Z,28.93
2019-02-19T01:43:51.798Z,29.33
2019-02-19T01:46:20.455Z,28.83
2019-02-19T01:48:49.068Z,29.50
2019-02-19T01:51:17.765Z,31.50
2019-02-19T01:53:46.383Z,31.20
2019-02-19T01:56:14.945Z,29.30
2019-02-19T01:58:43.561Z,28.37
2019-02-19T02:01:12.213Z,27.40
2019-02-19T02:03:40.855Z,26.43
2019-02-19T02:06:09.392Z,25.37
2019-02-19T02:08:38.090Z,25.50
2019-02-19T02:11:06.654Z,24.87
2019-02-19T02:13:35.151Z,26.40
2019-02-19T02:16:03.801Z,25.17
2019-02-19T02:18:32.479Z,25.57
2019-02-19T02:21:01.118Z,23.43
2019-02-19T02:23:29.742Z,24.77
2019-02-19T02:25:58.239Z,24.63
2019-02-19T02:28:26.837Z,24.93
2019-02-19T02:30:55.378Z,25.30
2019-02-19T02:33:23.883Z,25.37
2019-02-19T02:35:52.552Z,27.27
2019-02-19T02:38:21.065Z,28.10
2019-02-19T02:40:49.645Z,27.83
2019-02-19T02:43:18.178Z,25.60
2019-02-19T02:45:53.436Z,25.93
2019-02-19T02:48:17.079Z,24.43
2019-02-19T02:50:45.626Z,22.97
2019-02-19T02:53:14.240Z,23.73
2019-02-19T02:55:42.931Z,25.47
2019-02-19T02:58:11.546Z,25.90
2019-02-19T03:00:40.155Z,24.70
2019-02-19T03:03:08.643Z,27.30
2019-02-19T03:05:39.649Z,26.87
2019-02-19T03:08:08.553Z,28.33
2019-02-19T03:10:37.193Z,28.30
2019-02-19T03:13:05.815Z,27.20
2019-02-19T03:15:34.437Z,28.20
2019-02-19T03:18:02.973Z,28.60
2019-02-19T03:20:31.613Z,28.60
2019-02-19T03:23:00.244Z,28.47
2019-02-19T03:25:28.889Z,27.17
2019-02-19T03:27:57.536Z,27.87
2019-02-19T03:30:26.095Z,30.23
2019-02-19T03:32:54.666Z,31.70
2019-02-19T03:35:23.207Z,34.30
2019-02-19T03:37:51.782Z,34.87
2019-02-19T03:40:20.474Z,35.37
2019-02-19T03:42:48.972Z,35.33
2019-02-19T03:45:17.666Z,41.87
2019-02-19T03:47:46.308Z,41.03
2019-02-19T03:50:14.890Z,42.40
2019-02-19T03:52:43.527Z,32.10
2019-02-19T03:55:14.961Z,38.90
2019-02-19T03:57:43.460Z,31.77
2019-02-19T04:00:12.102Z,32.47
2019-02-19T04:02:40.775Z,34.37
2019-02-19T04:05:09.405Z,30.37
2019-02-19T04:07:38.109Z,30.57
2019-02-19T04:10:08.758Z,29.83
2019-02-19T04:12:37.393Z,28.43
2019-02-19T04:15:07.477Z,25.10
2019-02-19T04:17:36.120Z,24.53
2019-02-19T04:20:06.860Z,23.30
2019-02-19T04:22:35.433Z,24.00
2019-02-19T04:25:04.185Z,22.33
2019-02-19T04:27:32.767Z,21.63
2019-02-19T04:30:01.246Z,24.67
2019-02-19T04:32:29.926Z,23.93
2019-02-19T04:34:58.514Z,24.37
2019-02-19T04:37:27.117Z,24.70
2019-02-19T04:39:55.594Z,24.57
2019-02-19T04:42:24.267Z,24.77
2019-02-19T04:44:52.966Z,24.67
2019-02-19T04:47:21.646Z,24.60
2019-02-19T04:49:50.148Z,24.00
2019-02-19T04:52:18.770Z,23.47
2019-02-19T04:54:47.395Z,23.83
2019-02-19T04:57:16.067Z,24.07
2019-02-19T04:59:44.694Z,24.47
2019-02-19T05:02:13.386Z,24.67
2019-02-19T05:04:41.941Z,24.70
2019-02-19T05:07:10.579Z,23.40
2019-02-19T05:09:39.151Z,22.67
2019-02-19T05:12:07.946Z,25.60
2019-02-19T05:14:36.436Z,25.37
2019-02-19T05:17:08.058Z,26.70
2019-02-19T05:19:36.647Z,24.70
2019-02-19T05:22:05.491Z,25.57
2019-02-19T05:24:34.062Z,26.40
2019-02-19T05:27:02.741Z,27.33
2019-02-19T05:29:31.297Z,33.17
2019-02-19T05:31:59.984Z,33.53
2019-02-19T05:34:31.416Z,36.97
2019-02-19T05:37:00.105Z,33.37
2019-02-19T05:39:28.905Z,27.23
2019-02-19T05:41:57.505Z,25.40
2019-02-19T05:44:26.175Z,24.53
2019-02-19T05:46:54.858Z,23.50
2019-02-19T05:49:23.518Z,25.60
2019-02-19T05:51:52.009Z,26.70
2019-02-19T05:54:20.610Z,25.90
2019-02-19T05:56:49.099Z,25.97
2019-02-19T05:59:17.673Z,26.30
2019-02-19T06:01:46.246Z,27.47
2019-02-19T06:04:14.879Z,26.63
2019-02-19T06:06:43.503Z,55.83
2019-02-19T06:09:12.121Z,35.93
2019-02-19T06:11:40.827Z,23.17
2019-02-19T06:14:09.317Z,22.53
2019-02-19T06:16:37.883Z,20.20
2019-02-19T06:19:06.919Z,20.53
2019-02-19T06:21:35.482Z,18.83
2019-02-19T06:24:04.116Z,17.30
2019-02-19T06:26:32.739Z,17.33
2019-02-19T06:29:01.445Z,17.53
2019-02-19T06:31:33.296Z,18.10
2019-02-19T06:34:01.823Z,16.73
2019-02-19T06:36:30.490Z,17.13
2019-02-19T06:38:59.393Z,17.57
2019-02-19T06:41:30.502Z,17.57
2019-02-19T06:43:59.062Z,18.87
2019-02-19T06:46:27.622Z,16.47
2019-02-19T06:48:59.457Z,16.47
2019-02-19T06:51:28.024Z,17.30
2019-02-19T06:53:56.631Z,22.00
2019-02-19T06:56:25.369Z,17.43
2019-02-19T06:58:54.047Z,19.03
2019-02-19T07:01:24.391Z,16.73
2019-02-19T07:03:57.246Z,17.17
2019-02-19T07:06:25.844Z,18.00
2019-02-19T07:08:54.344Z,17.73
2019-02-19T07:11:22.857Z,17.37
2019-02-19T07:13:51.467Z,15.93
2019-02-19T07:16:20.108Z,16.87
2019-02-19T07:18:51.242Z,17.50
2019-02-19T07:21:19.740Z,16.17
2019-02-19T07:23:48.324Z,16.23
2019-02-19T07:26:16.959Z,15.97
2019-02-19T07:28:45.509Z,16.33
2019-02-19T07:31:14.113Z,15.97
2019-02-19T07:33:42.593Z,16.67
2019-02-19T07:36:11.106Z,16.00
2019-02-19T07:38:39.720Z,16.50
2019-02-19T07:41:08.220Z,16.93
2019-02-19T07:43:36.902Z,15.87
2019-02-19T07:46:05.658Z,16.97
2019-02-19T07:48:34.302Z,17.53
2019-02-19T07:51:05.536Z,18.67
2019-02-19T07:53:34.044Z,19.10
2019-02-19T07:56:02.613Z,18.83
2019-02-19T07:58:31.212Z,18.77
2019-02-19T08:00:59.819Z,19.07
2019-02-19T08:03:28.484Z,18.33
2019-02-19T08:05:56.978Z,19.77
2019-02-19T08:08:25.627Z,17.47
2019-02-19T08:10:54.275Z,15.40
2019-02-19T08:13:22.916Z,25.07
2019-02-19T08:15:51.552Z,17.27
2019-02-19T08:18:20.099Z,16.27
2019-02-19T08:20:49.547Z,16.33
2019-02-19T08:23:18.193Z,16.10
2019-02-19T08:25:48.486Z,14.93
2019-02-19T08:28:17.148Z,16.17
2019-02-19T08:30:46.265Z,13.90
2019-02-19T08:33:15.148Z,14.03
2019-02-19T08:35:46.117Z,13.53
2019-02-19T08:38:15.825Z,12.87
2019-02-19T08:40:45.595Z,12.17
2019-02-19T08:43:14.282Z,13.07
2019-02-19T08:45:49.038Z,11.93
2019-02-19T08:48:18.321Z,12.93
2019-02-19T08:50:47.109Z,11.53
2019-02-19T08:53:20.255Z,11.83
2019-02-19T08:55:52.592Z,12.30
2019-02-19T08:58:24.641Z,11.20
2019-02-19T09:00:57.138Z,12.10
2019-02-19T09:03:26.016Z,12.47
2019-02-19T09:05:54.711Z,12.67
2019-02-19T09:08:23.370Z,11.60
2019-02-19T09:10:52.012Z,12.30
2019-02-19T09:13:20.764Z,11.83
2019-02-19T09:15:49.541Z,11.55
2019-02-19T09:18:18.320Z,12.13
2019-02-19T09:20:47.063Z,11.78
2019-02-19T09:23:15.656Z,11.33
2019-02-19T09:25:44.429Z,12.93
2019-02-19T09:28:13.097Z,12.40
2019-02-19T09:30:41.921Z,13.03
2019-02-19T09:33:10.594Z,13.43
2019-02-19T09:35:43.122Z,12.75
2019-02-19T09:38:14.538Z,12.90
2019-02-19T09:40:43.813Z,13.78
2019-02-19T09:43:12.548Z,11.75
2019-02-19T09:45:44.063Z,10.75
2019-02-19T09:48:12.806Z,11.83
2019-02-19T09:50:41.639Z,11.25
2019-02-19T09:53:10.238Z,12.75
2019-02-19T09:55:39.723Z,11.88
2019-02-19T09:58:08.503Z,17.57
2019-02-19T10:00:37.299Z,14.78
2019-02-19T10:03:06.103Z,14.03
2019-02-19T10:05:34.828Z,13.22
2019-02-19T10:08:03.580Z,14.13
2019-02-19T10:10:32.093Z,14.68
2019-02-19T10:13:00.713Z,15.10
2019-02-19T10:15:29.352Z,14.83
2019-02-19T10:17:57.962Z,14.40
2019-02-19T10:20:26.525Z,14.68
2019-02-19T10:22:55.066Z,14.78
2019-02-19T10:25:23.702Z,15.13
2019-02-19T10:27:52.325Z,14.68
2019-02-19T10:30:21.262Z,15.15
2019-02-19T10:32:49.786Z,15.20
2019-02-19T10:35:18.879Z,14.40
2019-02-19T10:37:51.886Z,14.83
2019-02-19T10:40:21.937Z,15.93
2019-02-19T10:42:50.502Z,15.32
2019-02-19T10:45:24.171Z,16.20
2019-02-19T10:47:52.893Z,16.02
2019-02-19T10:50:25.976Z,14.33
2019-02-19T10:52:54.869Z,14.53
2019-02-19T10:55:23.604Z,15.75
2019-02-19T10:57:54.029Z,16.05
2019-02-19T11:00:23.650Z,14.50
2019-02-19T11:02:52.389Z,13.88
2019-02-19T11:05:21.127Z,13.68
2019-02-19T11:07:49.760Z,13.55
2019-02-19T11:10:18.596Z,13.90
2019-02-19T11:12:47.256Z,14.33
2019-02-19T11:15:17.524Z,14.23
2019-02-19T11:17:46.390Z,14.30
2019-02-19T11:20:18.074Z,12.65
2019-02-19T11:22:46.755Z,13.95
2019-02-19T11:25:15.476Z,12.73
2019-02-19T11:27:44.172Z,14.03
2019-02-19T11:30:15.648Z,12.63
2019-02-19T11:32:44.286Z,11.90
2019-02-19T11:35:13.082Z,11.12
2019-02-19T11:37:41.751Z,12.80
2019-02-19T11:40:12.262Z,11.55
2019-02-19T11:42:44.005Z,11.75
2019-02-19T11:45:15.266Z,12.23
2019-02-19T11:47:43.973Z,12.00
2019-02-19T11:50:13.262Z,11.38
2019-02-19T11:52:42.076Z,12.28
2019-02-19T11:55:13.156Z,14.05
2019-02-19T11:57:41.890Z,11.18
2019-02-19T12:00:14.625Z,10.82
2019-02-19T12:02:43.432Z,10.53
2019-02-19T12:05:12.190Z,9.38
2019-02-19T12:07:41.015Z,9.20
2019-02-19T12:10:11.908Z,10.18
2019-02-19T12:12:40.572Z,9.75
2019-02-19T12:15:14.101Z,9.30
2019-02-19T12:17:42.738Z,8.83
2019-02-19T12:20:13.569Z,9.83
2019-02-19T12:22:42.199Z,12.58
2019-02-19T12:25:11.164Z,8.00
2019-02-19T12:27:39.916Z,8.68
2019-02-19T12:30:14.280Z,9.98
2019-02-19T12:32:42.962Z,8.68
2019-02-19T12:35:11.732Z,8.40
2019-02-19T12:37:40.394Z,8.10
2019-02-19T12:40:12.822Z,7.65
2019-02-19T12:42:41.812Z,7.53
2019-02-19T12:45:14.272Z,7.58
2019-02-19T12:47:45.686Z,9.08
2019-02-19T12:50:18.736Z,8.53
2019-02-19T12:52:47.507Z,10.23
2019-02-19T12:55:16.256Z,8.10
2019-02-19T12:57:45.022Z,8.30
2019-02-19T13:00:18.596Z,8.53
2019-02-19T13:02:47.298Z,9.80
2019-02-19T13:05:16.645Z,12.58
2019-02-19T13:07:47.000Z,13.20
2019-02-19T13:10:16.058Z,10.50
2019-02-19T13:12:44.700Z,8.48
2019-02-19T13:15:15.690Z,9.28
2019-02-19T13:17:45.030Z,9.90
2019-02-19T13:20:14.854Z,11.73
2019-02-19T13:22:43.569Z,10.65
2019-02-19T13:25:12.898Z,10.38
2019-02-19T13:27:47.403Z,10.80
2019-02-19T13:30:20.552Z,13.08
2019-02-19T13:32:49.227Z,10.82
2019-02-19T13:35:18.043Z,10.38
2019-02-19T13:37:46.727Z,9.75
2019-02-19T13:40:17.289Z,9.15
2019-02-19T13:42:46.003Z,9.00
2019-02-19T13:45:15.488Z,9.48
2019-02-19T13:47:44.512Z,7.50
2019-02-19T13:50:21.541Z,6.62
2019-02-19T13:52:52.231Z,9.45
2019-02-19T13:55:22.606Z,9.93
2019-02-19T13:57:51.306Z,10.15
2019-02-19T14:00:21.658Z,9.80
2019-02-19T14:02:50.797Z,9.35
2019-02-19T14:05:19.563Z,9.63
2019-02-19T14:07:51.178Z,9.45
2019-02-19T14:10:19.978Z,7.97
2019-02-19T14:12:48.855Z,9.03
2019-02-19T14:15:19.268Z,9.55
2019-02-19T14:17:48.075Z,10.43
2019-02-19T14:20:30.517Z,11.45
2019-02-19T14:23:16.075Z,12.40
2019-02-19T14:25:49.181Z,11.93
2019-02-19T14:28:39.320Z,12.15
2019-02-19T14:31:09.851Z,12.18
2019-02-19T14:33:56.339Z,12.98
2019-02-19T14:36:32.053Z,12.13
2019-02-19T14:39:18.402Z,11.75
2019-02-19T14:41:57.953Z,12.03
2019-02-19T14:44:34.020Z,12.15
2019-02-19T14:47:04.781Z,11.28
2019-02-19T14:49:49.746Z,11.25
2019-02-19T14:52:25.701Z,12.50
2019-02-19T14:54:55.996Z,12.53
2019-02-19T14:57:32.836Z,12.90
2019-02-19T15:00:19.350Z,12.73
2019-02-19T15:02:52.066Z,10.85
2019-02-19T15:05:31.289Z,12.63
2019-02-19T15:08:04.044Z,11.05
2019-02-19T15:10:43.925Z,13.80
2019-02-19T15:13:19.689Z,12.70
2019-02-19T15:15:55.872Z,13.70
2019-02-19T15:18:41.454Z,14.73
2019-02-19T15:21:28.012Z,16.97
2019-02-19T15:24:07.479Z,13.03
2019-02-19T15:26:37.841Z,14.17
2019-02-19T15:29:10.700Z,19.43
2019-02-19T15:31:43.473Z,24.40
2019-02-19T15:34:19.550Z,20.67
2019-02-19T15:36:58.909Z,17.53
2019-02-19T15:39:45.331Z,19.27
2019-02-19T16:09:01.487Z,34.63
2019-02-19T16:27:38.372Z,31.70
2019-02-19T16:30:14.617Z,38.17
2019-02-19T16:32:47.950Z,33.30
2019-02-19T16:35:29.939Z,34.63
2019-02-19T16:38:00.206Z,35.40
2019-02-19T16:40:39.395Z,35.77
2019-02-19T16:43:10.669Z,49.37
2019-02-19T16:45:43.673Z,54.97
2019-02-19T16:48:16.936Z,54.13
2019-02-19T16:50:49.638Z,38.10
2019-02-19T16:53:25.789Z,38.40
2019-02-19T16:56:01.646Z,41.90
2019-02-19T16:58:31.882Z,42.03
2019-02-19T17:01:02.160Z,47.07
2019-02-19T17:03:38.310Z,75.80
2019-02-19T17:06:17.779Z,87.23
2019-02-19T17:08:51.124Z,101.27
2019-02-19T17:11:24.185Z,98.33
2019-02-19T17:13:58.603Z,112.83
2019-02-19T17:16:44.929Z,96.03
2019-02-19T17:19:21.565Z,78.37
2019-02-19T17:21:54.770Z,75.53
2019-02-19T17:24:25.650Z,81.87
2019-02-19T17:26:55.996Z,104.63
2019-02-19T17:29:35.113Z,99.53
2019-02-19T17:32:11.353Z,90.60
2019-02-19T17:34:44.372Z,82.37
2019-02-19T17:37:33.295Z,84.97
2019-02-19T17:40:06.261Z,96.10
2019-02-19T17:42:54.998Z,78.57
2019-02-19T17:45:25.271Z,77.73
2019-02-19T17:47:58.164Z,87.70
2019-02-19T17:50:43.523Z,81.43
2019-02-19T17:53:28.841Z,89.17
2019-02-19T17:56:17.405Z,87.00
2019-02-19T17:58:47.676Z,89.30
2019-02-19T18:01:26.944Z,87.20
2019-02-19T18:04:13.530Z,89.57
2019-02-19T18:06:43.727Z,97.30
2019-02-19T18:09:33.833Z,105.97
2019-02-19T18:12:09.700Z,115.57
2019-02-19T18:14:56.200Z,106.30
2019-02-19T18:17:26.395Z,89.30
2019-02-19T18:19:54.980Z,96.20
2019-02-19T18:22:23.539Z,94.30
2019-02-19T18:24:52.204Z,86.23
2019-02-19T18:27:23.981Z,83.70
2019-02-19T18:29:52.537Z,82.73
2019-02-19T18:32:21.178Z,85.17
2019-02-19T18:34:49.812Z,78.00
2019-02-19T18:37:18.540Z,76.37
2019-02-19T18:39:47.112Z,75.27
2019-02-19T18:42:15.743Z,71.23
2019-02-19T18:44:44.296Z,67.87
2019-02-19T18:47:12.989Z,71.83
2019-02-19T18:49:44.872Z,68.27
2019-02-19T18:52:13.362Z,74.37
2019-02-19T18:54:42.048Z,74.23
2019-02-19T18:57:10.700Z,76.00
2019-02-19T18:59:39.434Z,81.50
2019-02-19T19:02:08.739Z,53.43
2019-02-19T19:04:37.383Z,46.60
2019-02-19T19:07:05.999Z,42.33
2019-02-19T19:09:39.826Z,42.93
2019-02-19T19:12:11.590Z,40.87
2019-02-19T19:14:40.279Z,41.30
2019-02-19T19:17:08.912Z,40.67
2019-02-19T19:19:37.457Z,44.70
2019-02-19T19:22:08.714Z,41.73
2019-02-19T19:24:37.268Z,42.40
2019-02-19T19:27:05.988Z,40.87
2019-02-19T19:29:34.542Z,44.37
2019-02-19T19:32:03.956Z,49.17
2019-02-19T19:34:32.644Z,47.93
2019-02-19T19:37:01.378Z,52.13
2019-02-19T19:39:30.017Z,46.40
2019-02-19T19:42:01.661Z,46.23
2019-02-19T19:44:30.324Z,49.23
2019-02-19T19:46:59.043Z,47.00
2019-02-19T19:49:27.547Z,48.30
2019-02-19T19:51:56.406Z,45.93
2019-02-19T19:54:25.124Z,47.73
2019-02-19T19:56:56.291Z,49.70
2019-02-19T19:59:27.713Z,51.57
2019-02-19T20:01:59.085Z,50.47
2019-02-19T20:04:27.704Z,47.63
2019-02-19T20:06:56.367Z,46.47
2019-02-19T20:09:27.846Z,49.67
2019-02-19T20:11:56.422Z,54.13
2019-02-19T20:14:34.186Z,52.40
2019-02-19T20:17:05.487Z,56.07
2019-02-19T20:19:34.622Z,60.80
2019-02-19T20:22:04.004Z,67.63
2019-02-19T20:24:35.542Z,68.93
2019-02-19T20:27:04.899Z,75.03
2019-02-19T20:29:33.513Z,65.00
2019-02-19T20:32:02.014Z,65.77
2019-02-19T20:34:30.569Z,65.93
2019-02-19T20:36:59.203Z,68.27
2019-02-19T20:39:30.819Z,72.97
2019-02-19T20:41:59.371Z,72.93
2019-02-19T20:44:27.936Z,73.70
2019-02-19T20:46:59.417Z,72.07
2019-02-19T20:49:27.989Z,71.87
2019-02-19T20:51:56.586Z,75.73
2019-02-19T20:54:25.380Z,76.33
2019-02-19T20:56:54.062Z,89.80
2019-02-19T20:59:25.316Z,89.97
2019-02-19T21:01:54.035Z,90.77
2019-02-19T21:04:22.603Z,83.67
2019-02-19T21:06:51.463Z,75.23
2019-02-19T21:09:25.771Z,75.83
2019-02-19T21:11:57.296Z,72.43
2019-02-19T21:14:25.997Z,68.77
2019-02-19T21:16:57.366Z,67.27
2019-02-19T21:19:26.241Z,64.93
2019-02-19T21:21:54.974Z,63.97
2019-02-19T21:24:23.620Z,63.60
2019-02-19T21:26:52.326Z,63.10
2019-02-19T21:29:21.034Z,64.23
2019-02-19T21:31:49.678Z,62.77
2019-02-19T21:34:18.320Z,61.60
2019-02-19T21:36:47.028Z,58.47
2019-02-19T21:39:15.605Z,58.20
2019-02-19T21:41:44.280Z,58.73
2019-02-19T21:44:12.832Z,59.43
2019-02-19T21:46:41.970Z,57.80
2019-02-19T21:49:10.620Z,63.10
2019-02-19T21:51:39.209Z,64.13
2019-02-19T21:54:07.943Z,65.90
2019-02-19T21:56:36.584Z,68.90
2019-02-19T21:59:05.729Z,70.17
2019-02-19T22:01:34.471Z,70.23
2019-02-19T22:04:03.201Z,72.67
2019-02-19T22:06:32.891Z,77.07
2019-02-19T22:09:01.871Z,67.50
2019-02-19T22:11:30.649Z,62.63
2019-02-19T22:13:59.313Z,64.13
2019-02-19T22:16:28.645Z,65.67
2019-02-19T22:18:57.340Z,68.37
2019-02-19T22:21:30.589Z,73.47
2019-02-19T22:23:59.291Z,82.10
2019-02-19T22:26:27.936Z,78.83
2019-02-19T22:28:57.052Z,68.90
2019-02-19T22:31:25.846Z,63.27
2019-02-19T22:33:54.479Z,60.27
2019-02-19T22:36:23.654Z,58.20
2019-02-19T22:38:52.942Z,59.83
2019-02-19T22:41:25.983Z,58.23
2019-02-19T22:43:54.691Z,55.07
2019-02-19T22:46:23.467Z,56.13
2019-02-19T22:48:52.247Z,54.67
2019-02-19T22:51:20.904Z,57.37
2019-02-19T22:53:51.294Z,59.50
2019-02-19T22:56:21.649Z,62.03
2019-02-19T22:58:50.304Z,56.77
2019-02-19T23:01:33.797Z,58.97
2019-02-19T23:04:02.515Z,59.23
2019-02-19T23:06:31.280Z,60.93
2019-02-19T23:08:59.940Z,59.80
2019-02-19T23:11:28.655Z,60.73
2019-02-19T23:13:57.361Z,60.07
2019-02-19T23:16:26.078Z,69.60
2019-02-19T23:18:54.729Z,69.83
2019-02-19T23:21:23.367Z,76.23
2019-02-19T23:23:51.989Z,74.90
2019-02-19T23:26:20.626Z,70.23
2019-02-19T23:28:49.316Z,63.90
2019-02-19T23:31:17.963Z,59.30
2019-02-19T23:33:46.953Z,61.27
2019-02-19T23:36:26.126Z,62.93
2019-02-19T23:38:54.819Z,60.27
2019-02-19T23:41:23.532Z,56.43
2019-02-19T23:43:52.267Z,53.27
2019-02-19T23:46:20.994Z,59.20
2019-02-19T23:48:49.774Z,60.90
2019-02-19T23:51:18.510Z,59.10
2019-02-19T23:53:47.291Z,47.57
2019-02-19T23:56:16.008Z,43.83
2019-02-19T23:58:47.168Z,43.97
